Time;durP1;ratioP1;P1;durP2;ratioP2;P2;SDS_P1;SDS_P2;PMS_P1;PMS_P2;Temp;Humidity;BMP_temperature;BMP_pressure;BME280_temperature;BME280_humidity;BME280_pressure;Samples;Min_cycle;Max_cycle;Signal;HPM_P1;HPM_P2
2023/06/29 00:02:20;;;;;;;4.60;4.20;;;;;;;24.17;44.85;95206.41;6160403;28;109152;-57
2023/06/29 00:05:23;;;;;;;3.90;3.60;;;;;;;24.17;44.91;95195.72;6175126;28;110135;-57
2023/06/29 00:08:27;;;;;;;5.87;3.70;;;;;;;24.13;44.77;95200.91;6165982;28;109347;-57
2023/06/29 00:11:32;;;;;;;4.00;3.60;;;;;;;24.18;44.79;95195.41;6169232;28;110035;-57
2023/06/29 00:14:35;;;;;;;4.57;4.17;;;;;;;24.21;44.80;95211.94;6183601;28;109083;-57
2023/06/29 00:17:38;;;;;;;3.80;3.50;;;;;;;24.19;44.77;95209.56;6154672;28;109106;-57
2023/06/29 00:20:42;;;;;;;3.87;3.47;;;;;;;24.17;44.82;95201.06;6205330;28;109095;-57
2023/06/29 00:23:45;;;;;;;5.00;3.67;;;;;;;24.11;44.74;95199.66;6197472;28;109037;-57
2023/06/29 00:26:50;;;;;;;3.70;3.40;;;;;;;24.10;44.70;95201.56;6184286;28;109408;-57
2023/06/29 00:29:53;;;;;;;3.43;3.07;;;;;;;24.12;44.89;95185.19;6153205;28;110142;-57
2023/06/29 00:32:56;;;;;;;3.80;3.40;;;;;;;24.12;44.95;95182.50;6162596;28;109076;-57
2023/06/29 00:36:00;;;;;;;3.57;3.27;;;;;;;24.09;45.40;95177.81;6176950;28;109073;-58
2023/06/29 00:39:03;;;;;;;3.77;3.47;;;;;;;24.08;44.89;95182.38;6172783;28;109106;-60
2023/06/29 00:42:08;;;;;;;3.80;3.50;;;;;;;24.07;45.06;95188.03;6180716;28;109089;-57
2023/06/29 00:45:12;;;;;;;4.60;3.67;;;;;;;24.06;44.70;95181.13;6189182;28;110181;-58
2023/06/29 00:48:17;;;;;;;4.73;3.90;;;;;;;24.05;44.85;95183.00;6208101;28;109055;-57
2023/06/29 00:51:20;;;;;;;3.60;3.30;;;;;;;24.04;44.97;95180.66;6187127;28;109608;-57
2023/06/29 00:54:24;;;;;;;3.50;3.20;;;;;;;24.04;45.11;95186.00;6175773;28;110149;-57
2023/06/29 00:57:29;;;;;;;3.90;3.60;;;;;;;24.03;45.11;95190.56;6188898;28;110070;-57
2023/06/29 01:00:33;;;;;;;4.40;3.97;;;;;;;24.06;45.21;95194.47;6185167;28;110215;-58
2023/06/29 01:03:40;;;;;;;4.23;3.83;;;;;;;24.04;45.29;95194.00;6154817;28;109747;-58
2023/06/29 01:06:49;;;;;;;3.80;3.47;;;;;;;24.05;45.13;95188.34;6182049;28;109073;-57
2023/06/29 01:09:54;;;;;;;3.87;3.43;;;;;;;24.07;45.27;95193.38;6177636;28;108920;-58
2023/06/29 01:13:01;;;;;;;4.10;3.80;;;;;;;24.07;45.66;95198.72;6183140;28;109257;-57
2023/06/29 01:16:06;;;;;;;4.50;4.10;;;;;;;24.06;45.30;95199.81;6168052;28;110062;-57
2023/06/29 01:19:12;;;;;;;4.23;3.93;;;;;;;24.07;45.44;95198.72;6182314;28;109149;-58
2023/06/29 01:22:20;;;;;;;4.30;3.90;;;;;;;24.09;45.36;95191.16;6179205;28;109813;-57
2023/06/29 01:25:25;;;;;;;4.73;4.33;;;;;;;24.10;45.40;95184.72;6171589;28;109476;-58
2023/06/29 01:28:28;;;;;;;4.70;4.30;;;;;;;24.07;45.63;95185.34;6178341;28;109056;-57
2023/06/29 01:31:32;;;;;;;4.57;4.27;;;;;;;24.07;45.62;95190.69;6187371;28;110329;-57
2023/06/29 01:34:37;;;;;;;4.30;4.00;;;;;;;24.10;45.50;95195.41;6186955;28;109531;-57
2023/06/29 01:37:46;;;;;;;6.60;4.73;;;;;;;24.08;45.67;95186.94;6162654;28;110056;-57
2023/06/29 01:40:55;;;;;;;4.50;4.20;;;;;;;24.07;45.96;95180.00;6197313;28;109394;-57
2023/06/29 01:44:00;;;;;;;4.30;4.00;;;;;;;24.06;45.27;95186.47;6163842;28;110074;-59
2023/06/29 01:47:05;;;;;;;4.60;4.23;;;;;;;24.07;45.44;95185.34;6173357;28;109310;-56
2023/06/29 01:50:09;;;;;;;4.57;4.27;;;;;;;24.06;45.49;95184.56;6164057;28;109077;-57
2023/06/29 01:53:12;;;;;;;5.13;4.73;;;;;;;24.06;45.67;95183.78;6169635;28;108968;-57
2023/06/29 01:56:17;;;;;;;4.93;4.60;;;;;;;24.07;45.62;95188.03;6181595;28;109267;-56
2023/06/29 01:59:20;;;;;;;5.37;4.97;;;;;;;24.05;45.62;95184.88;6181216;28;109757;-58
2023/06/29 02:02:23;;;;;;;5.30;4.90;;;;;;;24.04;45.37;95180.66;6211370;28;109158;-57
2023/06/29 02:05:26;;;;;;;5.53;5.13;;;;;;;24.00;45.52;95177.78;6196333;28;110960;-58
2023/06/29 02:08:29;;;;;;;5.07;4.67;;;;;;;24.02;45.42;95183.59;6196304;28;110033;-58
2023/06/29 02:11:34;;;;;;;5.00;4.70;;;;;;;24.02;45.79;95196.97;6152374;28;109227;-57
2023/06/29 02:14:37;;;;;;;5.23;4.93;;;;;;;24.02;45.20;95191.63;6167919;28;109353;-58
2023/06/29 02:17:41;;;;;;;4.97;4.67;;;;;;;24.00;45.24;95191.16;6182183;28;110540;-58
2023/06/29 02:20:44;;;;;;;5.40;5.00;;;;;;;24.02;45.40;95185.50;6174004;28;109382;-57
2023/06/29 02:23:47;;;;;;;5.10;4.70;;;;;;;24.01;45.41;95183.91;6172603;28;110180;-61
2023/06/29 02:26:52;;;;;;;5.77;5.37;;;;;;;23.98;45.42;95176.50;6194592;28;109159;-61
2023/06/29 02:29:55;;;;;;;5.27;4.87;;;;;;;24.01;45.29;95176.69;6162841;28;109073;-60
2023/06/29 02:32:59;;;;;;;5.40;5.00;;;;;;;23.98;45.43;95185.31;6164813;28;110275;-61
2023/06/29 02:36:02;;;;;;;5.00;4.60;;;;;;;23.97;45.53;95186.41;6174462;28;110867;-59
2023/06/29 02:39:05;;;;;;;5.60;5.20;;;;;;;23.94;45.55;95183.59;6181473;28;110143;-59
2023/06/29 02:42:10;;;;;;;5.33;5.03;;;;;;;23.96;45.34;95184.06;6186562;28;110171;-61
2023/06/29 02:45:13;;;;;;;7.80;5.40;;;;;;;23.96;45.20;95178.72;6174764;28;109072;-62
2023/06/29 02:48:16;;;;;;;5.37;4.97;;;;;;;24.02;45.19;95183.59;6181170;28;109476;-63
2023/06/29 02:51:19;;;;;;;5.07;4.77;;;;;;;24.06;45.51;95189.91;6186171;28;110202;-62
2023/06/29 02:54:22;;;;;;;6.10;5.60;;;;;;;24.07;45.52;95191.50;6166010;28;110785;-62
2023/06/29 02:57:27;;;;;;;5.97;5.33;;;;;;;24.09;45.62;95191.16;6167314;28;109215;-62
2023/06/29 03:00:30;;;;;;;11.57;8.30;;;;;;;24.10;45.25;95196.19;6174260;28;109078;-62
2023/06/29 03:03:33;;;;;;;7.57;6.93;;;;;;;24.08;44.94;95197.63;6175768;28;110144;-63
2023/06/29 03:06:36;;;;;;;7.70;6.67;;;;;;;24.11;45.28;95199.66;6185151;28;109307;-62
2023/06/29 03:09:40;;;;;;;7.30;6.60;;;;;;;24.11;45.46;95205.78;6174475;28;109378;-62
2023/06/29 03:12:44;;;;;;;6.50;5.90;;;;;;;24.09;45.32;95204.53;6179569;28;109050;-63
2023/06/29 03:15:47;;;;;;;6.90;6.20;;;;;;;24.09;45.19;95205.31;6185039;28;110277;-63
2023/06/29 03:18:50;;;;;;;8.67;5.53;;;;;;;24.08;45.32;95203.75;6188451;28;109509;-62
2023/06/29 03:21:54;;;;;;;8.60;7.50;;;;;;;24.08;45.05;95209.09;6188242;28;108862;-63
2023/06/29 03:24:57;;;;;;;12.93;7.80;;;;;;;24.05;45.83;95220.44;6185271;28;109360;-64
2023/06/29 03:28:01;;;;;;;11.20;7.00;;;;;;;24.07;45.37;95206.75;6184394;28;109949;-64
2023/06/29 03:31:04;;;;;;;10.80;7.90;;;;;;;24.07;45.59;95214.75;6154162;28;110007;-63
2023/06/29 03:34:08;;;;;;;9.67;7.13;;;;;;;24.08;46.10;95217.13;6167600;28;110370;-62
2023/06/29 03:37:11;;;;;;;8.80;7.23;;;;;;;24.11;46.98;95215.69;6183121;28;110036;-61
2023/06/29 03:40:16;;;;;;;7.40;6.53;;;;;;;24.16;46.21;95204.84;6182043;28;108763;-62
2023/06/29 03:43:20;;;;;;;12.93;6.97;;;;;;;24.19;45.91;95214.91;6168979;28;109133;-69
2023/06/29 03:46:25;;;;;;;15.27;8.30;;;;;;;24.17;45.91;95214.44;6195686;28;109555;-62
2023/06/29 03:49:28;;;;;;;11.90;7.00;;;;;;;24.21;45.59;95219.97;6173461;28;109871;-62
2023/06/29 03:52:31;;;;;;;7.87;7.10;;;;;;;24.14;45.79;95218.53;6163167;28;109167;-62
2023/06/29 03:55:34;;;;;;;8.10;6.70;;;;;;;24.03;45.36;95219.16;6154607;28;109062;-65
2023/06/29 03:58:39;;;;;;;7.23;6.57;;;;;;;23.92;45.50;95217.88;6160629;28;108616;-61
2023/06/29 04:01:42;;;;;;;7.30;6.70;;;;;;;23.87;45.07;95218.81;6160224;28;109390;-61
2023/06/29 04:04:45;;;;;;;6.93;6.33;;;;;;;23.87;45.60;95224.16;6150790;28;110093;-61
2023/06/29 04:07:48;;;;;;;7.07;6.47;;;;;;;23.83;45.22;95218.63;6160888;28;109829;-61
2023/06/29 04:10:51;;;;;;;6.50;6.00;;;;;;;23.80;45.21;95219.25;6161732;28;109373;-61
2023/06/29 04:13:56;;;;;;;7.67;6.97;;;;;;;23.77;45.34;95221.78;6199001;28;109171;-60
2023/06/29 04:16:59;;;;;;;6.90;6.23;;;;;;;23.76;45.30;95222.88;6203975;28;109233;-61
2023/06/29 04:20:03;;;;;;;7.40;6.90;;;;;;;23.75;45.05;95219.41;6213712;28;110348;-60
2023/06/29 04:23:06;;;;;;;6.93;6.40;;;;;;;23.75;45.26;95227.44;6214043;28;109176;-63
2023/06/29 04:26:09;;;;;;;6.97;6.10;;;;;;;23.72;45.34;95217.38;6214417;28;110053;-62
2023/06/29 04:29:14;;;;;;;6.90;6.40;;;;;;;23.73;45.20;95226.16;6203508;28;109074;-61
2023/06/29 04:32:17;;;;;;;7.73;7.13;;;;;;;23.73;45.28;95223.50;6213854;28;109013;-60
2023/06/29 04:35:20;;;;;;;6.70;6.13;;;;;;;23.71;45.11;95223.81;6213825;28;109398;-60
2023/06/29 04:38:25;;;;;;;7.90;7.20;;;;;;;23.72;45.28;95227.28;6205786;28;110163;-61
2023/06/29 04:41:32;;;;;;;8.23;7.53;;;;;;;23.69;45.27;95226.00;6212967;28;109112;-61
2023/06/29 04:44:37;;;;;;;7.93;7.33;;;;;;;23.67;45.31;95225.50;6191392;28;109072;-59
2023/06/29 04:47:41;;;;;;;7.67;7.07;;;;;;;23.68;45.19;95229.75;6188905;28;109341;-59
2023/06/29 04:50:44;;;;;;;8.27;7.67;;;;;;;23.68;45.30;95232.44;6177919;28;109557;-59
2023/06/29 04:53:47;;;;;;;7.77;7.17;;;;;;;23.66;45.19;95231.94;6188473;28;109317;-59
2023/06/29 04:56:50;;;;;;;7.97;7.13;;;;;;;23.67;44.91;95233.53;6188940;28;109043;-60
2023/06/29 04:59:55;;;;;;;7.80;7.20;;;;;;;23.68;45.67;95237.75;6189123;28;109332;-59
2023/06/29 05:02:58;;;;;;;8.13;7.50;;;;;;;23.69;45.06;95236.69;6178196;28;109086;-59
2023/06/29 05:06:01;;;;;;;9.13;8.43;;;;;;;23.70;45.14;95235.59;6188725;28;109930;-61
2023/06/29 05:09:04;;;;;;;9.47;8.50;;;;;;;23.69;45.29;95239.38;6188700;28;108930;-60
2023/06/29 05:12:08;;;;;;;7.60;7.10;;;;;;;23.67;45.45;95243.41;6185970;28;108784;-59
2023/06/29 05:15:13;;;;;;;8.90;8.23;;;;;;;23.69;44.87;95250.06;6208028;28;109252;-59
2023/06/29 05:18:16;;;;;;;9.17;8.57;;;;;;;23.67;45.00;95249.56;6213127;28;109064;-59
2023/06/29 05:21:19;;;;;;;9.90;9.10;;;;;;;23.67;45.09;95256.78;6211886;28;109316;-59
2023/06/29 05:24:22;;;;;;;8.10;7.30;;;;;;;23.67;45.07;95248.78;6203015;28;110001;-59
2023/06/29 05:27:25;;;;;;;7.77;7.07;;;;;;;23.75;45.19;95242.66;6213088;28;109954;-58
2023/06/29 05:30:30;;;;;;;11.53;8.17;;;;;;;23.79;44.93;95252.41;6209355;28;110025;-60
2023/06/29 05:33:33;;;;;;;9.13;8.27;;;;;;;23.79;45.15;95260.44;6188007;28;109223;-61
2023/06/29 05:36:36;;;;;;;8.27;7.67;;;;;;;23.76;45.50;95258.41;6177679;28;110048;-58
2023/06/29 05:39:39;;;;;;;9.20;8.50;;;;;;;23.79;44.81;95265.78;6187854;28;109323;-59
2023/06/29 05:42:42;;;;;;;9.03;8.30;;;;;;;23.81;45.06;95260.91;6194230;28;109225;-58
2023/06/29 05:45:47;;;;;;;9.70;8.93;;;;;;;23.85;44.73;95261.06;6212651;28;108825;-58
2023/06/29 05:48:50;;;;;;;9.20;8.50;;;;;;;23.86;45.05;95254.66;6204172;28;110455;-59
2023/06/29 05:51:53;;;;;;;9.90;9.20;;;;;;;23.89;45.09;95256.69;6211360;28;109056;-58
2023/06/29 05:54:56;;;;;;;9.60;8.87;;;;;;;23.89;45.21;95268.19;6212304;28;109305;-61
2023/06/29 05:57:59;;;;;;;9.70;8.83;;;;;;;23.90;45.23;95264.41;6202753;28;109156;-63
2023/06/29 06:01:04;;;;;;;9.20;8.33;;;;;;;23.97;45.19;95263.16;6211968;28;110173;-63
2023/06/29 06:04:09;;;;;;;9.50;8.80;;;;;;;24.02;45.22;95263.81;6212074;28;110147;-62
2023/06/29 06:07:15;;;;;;;9.57;8.90;;;;;;;24.10;44.99;95264.94;6212183;28;109098;-63
2023/06/29 06:10:18;;;;;;;9.93;8.93;;;;;;;24.13;44.92;95262.41;6201260;28;110222;-63
2023/06/29 06:13:21;;;;;;;9.40;8.70;;;;;;;24.17;44.82;95257.22;6200521;28;109466;-63
2023/06/29 06:16:26;;;;;;;9.10;8.20;;;;;;;24.17;44.88;95259.91;6187411;28;109060;-63
2023/06/29 06:19:29;;;;;;;9.10;8.33;;;;;;;24.19;44.72;95257.69;6187146;28;109077;-64
2023/06/29 06:22:33;;;;;;;9.00;8.17;;;;;;;24.24;44.89;95259.44;6177103;28;110081;-63
2023/06/29 06:25:36;;;;;;;8.83;8.17;;;;;;;24.29;44.72;95262.75;6187574;28;110504;-62
2023/06/29 06:28:39;;;;;;;8.27;7.67;;;;;;;24.34;44.69;95259.91;6187312;28;110156;-71
2023/06/29 06:31:43;;;;;;;8.20;7.57;;;;;;;24.41;44.72;95264.81;6182208;28;109212;-61
2023/06/29 06:34:48;;;;;;;8.60;7.90;;;;;;;24.46;44.26;95254.72;6181027;28;109088;-62
2023/06/29 06:37:51;;;;;;;8.43;7.80;;;;;;;24.49;44.25;95255.97;6186926;28;109041;-63
2023/06/29 06:40:54;;;;;;;7.93;7.33;;;;;;;24.57;44.47;95254.41;6187495;28;110047;-63
2023/06/29 06:43:58;;;;;;;8.70;7.90;;;;;;;24.52;44.44;95259.91;6192291;28;109219;-62
2023/06/29 06:47:02;;;;;;;9.00;8.30;;;;;;;24.59;44.30;95255.66;6211208;28;109053;-64
2023/06/29 06:50:06;;;;;;;8.20;7.50;;;;;;;24.60;44.60;95259.91;6211704;28;110404;-64
2023/06/29 06:53:09;;;;;;;7.60;6.93;;;;;;;24.55;44.41;95254.72;6210068;28;109036;-62
2023/06/29 06:56:13;;;;;;;8.10;7.37;;;;;;;24.54;44.56;95255.03;6201017;28;110030;-64
2023/06/29 06:59:16;;;;;;;7.83;7.00;;;;;;;24.58;44.53;95254.09;6211362;28;109215;-63
2023/06/29 07:02:21;;;;;;;6.93;6.33;;;;;;;24.61;43.99;95252.66;6210463;28;109109;-63
2023/06/29 07:05:24;;;;;;;6.97;6.47;;;;;;;24.69;44.16;95249.22;6208968;28;110251;-62
2023/06/29 07:08:28;;;;;;;7.40;6.80;;;;;;;24.75;43.86;95245.28;6204101;28;109389;-60
2023/06/29 07:11:31;;;;;;;7.07;6.53;;;;;;;24.81;43.96;95246.69;6210581;28;109243;-60
2023/06/29 07:14:34;;;;;;;6.90;6.40;;;;;;;24.86;43.57;95254.53;6210889;28;108980;-60
2023/06/29 07:17:38;;;;;;;6.90;6.30;;;;;;;24.91;43.81;95246.34;6200586;28;109147;-61
2023/06/29 07:20:42;;;;;;;7.10;6.50;;;;;;;24.94;43.66;95250.28;6210612;28;110204;-60
2023/06/29 07:23:48;;;;;;;7.00;6.40;;;;;;;24.99;43.55;95250.09;6210383;28;111568;-61
2023/06/29 07:26:54;;;;;;;7.00;6.50;;;;;;;25.06;43.30;95248.53;6207098;28;109628;-61
2023/06/29 07:29:57;;;;;;;6.60;6.10;;;;;;;25.03;43.62;95248.34;6201318;28;109578;-63
2023/06/29 07:33:02;;;;;;;7.23;6.63;;;;;;;25.08;43.65;95251.66;6210246;28;108983;-60
2023/06/29 07:36:06;;;;;;;6.60;6.10;;;;;;;25.09;43.41;95247.09;6210768;28;109063;-59
2023/06/29 07:39:09;;;;;;;5.83;5.43;;;;;;;25.15;43.37;95245.03;6210321;28;109203;-61
2023/06/29 07:42:12;;;;;;;6.47;5.97;;;;;;;25.17;43.43;95248.94;6198963;28;110688;-60
2023/06/29 07:45:22;;;;;;;6.30;5.90;;;;;;;25.17;43.52;95248.94;6184890;28;109048;-60
2023/06/29 07:48:27;;;;;;;6.10;5.70;;;;;;;25.17;43.65;95237.44;6185377;28;109068;-60
2023/06/29 07:51:32;;;;;;;5.80;5.30;;;;;;;25.22;43.38;95243.44;6178605;28;109040;-60
2023/06/29 07:54:35;;;;;;;6.20;5.70;;;;;;;25.24;43.09;95243.91;6183936;28;110378;-60
2023/06/29 07:57:38;;;;;;;5.97;5.57;;;;;;;25.24;43.03;95240.44;6185435;28;109040;-60
2023/06/29 08:00:44;;;;;;;5.60;5.20;;;;;;;25.29;43.09;95243.72;6181864;28;108903;-59
2023/06/29 08:03:49;;;;;;;5.00;4.70;;;;;;;25.33;43.05;95235.81;6174981;28;109555;-60
2023/06/29 08:07:06;;;;;;;4.73;4.43;;;;;;;25.38;42.92;95236.47;6185336;28;109083;-59
2023/06/29 08:10:12;;;;;;;5.30;4.90;;;;;;;25.41;43.06;95240.38;6185268;28;109062;-60
2023/06/29 08:13:15;;;;;;;5.20;4.80;;;;;;;25.41;43.00;95243.06;6195129;28;109325;-60
2023/06/29 08:16:18;;;;;;;4.90;4.60;;;;;;;25.47;43.05;95230.28;6199539;28;109154;-58
2023/06/29 08:19:23;;;;;;;5.83;4.90;;;;;;;25.42;43.41;95231.25;6209869;28;108809;-58
2023/06/29 08:22:26;;;;;;;5.17;4.77;;;;;;;25.46;43.06;95229.47;6209648;28;108990;-59
2023/06/29 08:25:29;;;;;;;5.23;4.80;;;;;;;25.46;42.78;95226.81;6203854;28;109497;-59
2023/06/29 08:28:32;;;;;;;5.37;4.87;;;;;;;25.47;42.65;95228.38;6205257;28;109027;-58
2023/06/29 08:31:35;;;;;;;5.30;4.80;;;;;;;25.49;42.80;95233.41;6209555;28;109998;-58
2023/06/29 08:34:40;;;;;;;4.50;4.20;;;;;;;25.40;42.52;95230.78;6209445;28;108996;-60
2023/06/29 08:37:43;;;;;;;4.30;3.97;;;;;;;25.48;42.44;95231.84;6198921;28;109802;-59
2023/06/29 08:40:47;;;;;;;5.20;4.80;;;;;;;25.54;42.41;95235.91;6209299;28;109280;-58
2023/06/29 08:43:51;;;;;;;5.63;5.00;;;;;;;25.52;42.30;95222.81;6209344;28;109515;-58
2023/06/29 08:46:56;;;;;;;7.33;6.83;;;;;;;25.58;42.05;95224.22;6209330;28;109060;-59
2023/06/29 08:50:04;;;;;;;6.10;5.70;;;;;;;25.57;41.98;95236.06;6198536;28;109680;-58
2023/06/29 08:53:08;;;;;;;5.33;4.93;;;;;;;25.59;41.97;95227.69;6208838;28;109039;-58
2023/06/29 08:56:13;;;;;;;5.80;5.30;;;;;;;25.59;41.79;95225.81;6208180;28;109356;-58
2023/06/29 08:59:16;;;;;;;5.60;5.10;;;;;;;25.63;41.73;95217.88;6207619;28;109038;-58
2023/06/29 09:02:20;;;;;;;5.83;5.33;;;;;;;25.64;42.08;95225.59;6206779;28;109398;-59
2023/06/29 09:05:25;;;;;;;4.60;4.30;;;;;;;25.66;42.14;95219.91;6213016;28;109132;-58
2023/06/29 09:08:28;;;;;;;5.17;4.67;;;;;;;25.69;41.86;95216.59;6213616;28;110820;-59
2023/06/29 09:11:33;;;;;;;4.83;4.43;;;;;;;25.71;42.09;95205.53;6203268;28;111328;-59
2023/06/29 09:14:43;;;;;;;4.60;4.20;;;;;;;25.73;42.36;95206.03;6192601;28;110069;-59
2023/06/29 09:17:46;;;;;;;4.30;4.00;;;;;;;25.71;42.01;95208.22;6188718;28;109285;-59
2023/06/29 09:20:55;;;;;;;4.70;4.20;;;;;;;25.64;42.43;95206.06;6188385;28;109435;-59
2023/06/29 09:23:59;;;;;;;4.23;3.87;;;;;;;25.59;42.62;95196.31;6178313;28;110187;-59
2023/06/29 09:27:02;;;;;;;4.00;3.70;;;;;;;25.64;42.33;95201.47;6187511;28;109064;-67
2023/06/29 09:30:07;;;;;;;4.30;4.00;;;;;;;25.64;42.52;95196.13;6188071;28;109511;-66
2023/06/29 09:33:11;;;;;;;4.60;4.20;;;;;;;25.64;42.59;95196.13;6185596;28;109688;-65
2023/06/29 09:36:15;;;;;;;4.30;3.90;;;;;;;25.62;42.82;95194.88;6182534;28;109309;-66
2023/06/29 09:39:19;;;;;;;3.83;3.50;;;;;;;25.62;42.42;95192.97;6188260;28;109087;-65
2023/06/29 09:42:22;;;;;;;3.97;3.67;;;;;;;25.63;43.00;95194.56;6189963;28;109141;-66
2023/06/29 09:45:29;;;;;;;4.17;3.87;;;;;;;25.67;42.68;95192.00;6202186;28;109145;-64
2023/06/29 09:48:32;;;;;;;4.80;4.00;;;;;;;25.66;42.62;95190.44;6212626;28;108805;-65
2023/06/29 09:51:40;;;;;;;4.10;3.70;;;;;;;25.56;43.17;95191.63;6190590;28;109781;-66
2023/06/29 09:54:43;;;;;;;3.73;3.43;;;;;;;25.56;42.72;95190.81;6187813;28;109175;-66
2023/06/29 09:57:48;;;;;;;3.57;3.27;;;;;;;25.57;42.66;95192.41;6177688;28;109840;-65
2023/06/29 10:00:52;;;;;;;6.20;3.67;;;;;;;25.52;42.85;95185.31;6188013;28;110061;-66
2023/06/29 10:03:55;;;;;;;4.03;3.30;;;;;;;25.53;42.63;95186.88;6187060;28;109188;-66
2023/06/29 10:07:05;;;;;;;3.70;3.40;;;;;;;25.51;42.71;95177.59;6187654;28;109071;-66
2023/06/29 10:10:12;;;;;;;4.27;3.90;;;;;;;25.50;42.94;95190.22;6177613;28;110202;-67
2023/06/29 10:13:16;;;;;;;4.00;3.70;;;;;;;25.49;43.21;95177.91;6196704;28;110018;-65
2023/06/29 10:16:23;;;;;;;3.87;3.40;;;;;;;25.49;42.76;95175.25;6212114;28;108788;-67
2023/06/29 10:19:27;;;;;;;3.77;3.47;;;;;;;25.54;43.02;95168.91;6201775;28;109237;-65
2023/06/29 10:22:35;;;;;;;3.60;3.30;;;;;;;25.52;42.57;95171.91;6211638;28;109177;-66
2023/06/29 10:25:42;;;;;;;3.50;3.23;;;;;;;25.53;42.97;95164.66;6212151;28;110067;-67
2023/06/29 10:28:45;;;;;;;3.40;3.20;;;;;;;25.53;43.08;95157.41;6210837;28;109162;-66
2023/06/29 10:31:49;;;;;;;3.27;3.07;;;;;;;25.48;43.15;95162.94;6200195;28;109217;-65
2023/06/29 10:35:04;;;;;;;3.60;3.30;;;;;;;25.42;43.15;95158.91;6211386;28;109125;-67
2023/06/29 10:38:13;;;;;;;3.53;3.20;;;;;;;25.38;43.11;95156.09;6211581;28;109433;-61
2023/06/29 10:41:26;;;;;;;3.30;3.00;;;;;;;25.40;43.27;95161.13;6209883;28;109158;-61
2023/06/29 10:44:35;;;;;;;3.90;3.50;;;;;;;25.37;43.10;95149.16;6186887;28;109901;-61
2023/06/29 10:47:39;;;;;;;3.40;3.10;;;;;;;25.35;43.42;95161.28;6186832;28;109355;-60
2023/06/29 10:50:44;;;;;;;4.50;3.23;;;;;;;25.34;43.32;95152.44;6187111;28;109317;-65
2023/06/29 10:53:50;;;;;;;3.20;2.90;;;;;;;25.34;43.07;95149.75;6176616;28;110075;-61
2023/06/29 10:57:00;;;;;;;3.53;3.23;;;;;;;25.33;43.38;95139.38;6186602;28;109465;-61
2023/06/29 11:00:04;;;;;;;3.80;3.50;;;;;;;25.30;43.50;95146.16;6185540;28;109161;-61
2023/06/29 11:03:09;;;;;;;3.80;3.50;;;;;;;25.30;43.34;95151.53;6185665;28;109120;-61
2023/06/29 11:06:13;;;;;;;3.70;3.40;;;;;;;25.30;43.17;95145.38;6175631;28;109217;-61
2023/06/29 11:09:36;;;;;;;3.40;3.20;;;;;;;25.29;43.54;95141.91;6186440;28;109215;-61
2023/06/29 11:12:40;;;;;;;3.50;3.20;;;;;;;25.27;43.57;95138.78;6185947;28;109091;-60
2023/06/29 11:15:44;;;;;;;3.70;3.40;;;;;;;25.27;43.58;95138.00;6181286;28;109017;-60
2023/06/29 11:18:50;;;;;;;4.10;3.80;;;;;;;25.28;43.55;95142.25;6180798;28;109408;-60
2023/06/29 11:21:54;;;;;;;3.70;3.40;;;;;;;25.24;43.50;95139.44;6185922;28;109023;-60
2023/06/29 11:24:59;;;;;;;4.23;3.93;;;;;;;25.28;43.68;95131.53;6186082;28;111943;-60
2023/06/29 11:28:06;;;;;;;3.40;3.10;;;;;;;25.25;43.34;95137.53;6175586;28;109316;-60
2023/06/29 11:31:09;;;;;;;3.60;3.10;;;;;;;25.25;43.65;95127.59;6185236;28;109055;-60
2023/06/29 11:34:14;;;;;;;3.50;3.23;;;;;;;25.22;43.65;95124.78;6186049;28;109059;-60
2023/06/29 11:37:21;;;;;;;3.73;3.43;;;;;;;25.25;43.43;95124.16;6186183;28;109762;-60
2023/06/29 11:40:28;;;;;;;3.50;3.20;;;;;;;25.23;43.37;95129.03;6175706;28;109371;-60
2023/06/29 11:43:31;;;;;;;3.67;3.37;;;;;;;25.22;43.66;95122.13;6185841;28;109170;-61
2023/06/29 11:46:35;;;;;;;4.53;3.57;;;;;;;25.21;43.28;95120.56;6185805;28;109087;-60
2023/06/29 11:49:39;;;;;;;3.37;3.10;;;;;;;25.18;43.42;95126.53;6180690;28;109687;-60
2023/06/29 11:52:44;;;;;;;3.30;3.07;;;;;;;25.19;43.38;95122.75;6180489;28;109625;-60
2023/06/29 11:55:54;;;;;;;3.80;3.50;;;;;;;25.16;43.58;95110.00;6185253;28;109225;-61
2023/06/29 11:58:57;;;;;;;3.80;3.50;;;;;;;25.16;43.18;95107.31;6185918;28;110069;-61
2023/06/29 12:02:01;;;;;;;3.47;3.17;;;;;;;25.15;43.43;95105.75;6173801;28;109560;-69
2023/06/29 12:05:05;;;;;;;4.03;3.63;;;;;;;25.13;43.55;95103.41;6185046;28;109138;-61
2023/06/29 12:08:09;;;;;;;3.20;3.00;;;;;;;25.09;43.54;95099.81;6185267;28;110120;-61
2023/06/29 12:11:20;;;;;;;3.33;3.03;;;;;;;25.11;43.41;95102.16;6184643;28;109354;-61
2023/06/29 12:14:27;;;;;;;3.40;3.20;;;;;;;25.10;43.93;95106.72;6174422;28;110172;-61
2023/06/29 12:17:34;;;;;;;3.73;3.43;;;;;;;25.11;43.54;95104.84;6185330;28;110338;-61
2023/06/29 12:20:41;;;;;;;4.23;3.83;;;;;;;25.09;43.38;95097.91;6181232;28;109720;-63
2023/06/29 12:23:45;;;;;;;3.40;3.10;;;;;;;25.08;43.20;95100.91;6180277;28;109282;-61
2023/06/29 12:26:50;;;;;;;3.23;2.93;;;;;;;25.05;43.23;95101.56;6179855;28;108953;-61
2023/06/29 12:29:53;;;;;;;3.80;3.43;;;;;;;25.03;43.35;95093.88;6184787;28;109118;-61
2023/06/29 12:32:56;;;;;;;3.40;3.20;;;;;;;25.02;43.42;95089.59;6186043;28;108842;-61
2023/06/29 12:35:59;;;;;;;3.23;3.03;;;;;;;25.02;43.09;95081.56;6179244;28;109149;-61
2023/06/29 12:39:02;;;;;;;3.20;2.90;;;;;;;25.00;43.24;95080.31;6188974;28;109019;-60
2023/06/29 12:42:07;;;;;;;5.03;3.00;;;;;;;25.00;43.07;95085.66;6188901;28;109329;-61
2023/06/29 12:45:12;;;;;;;4.10;3.70;;;;;;;24.99;43.05;95087.56;6188913;28;108991;-61
2023/06/29 12:48:15;;;;;;;3.40;3.10;;;;;;;24.99;43.36;95079.53;6178429;28;110071;-60
2023/06/29 12:51:18;;;;;;;3.47;3.17;;;;;;;24.99;43.05;95081.41;6188787;28;110096;-61
2023/06/29 12:54:21;;;;;;;3.80;3.50;;;;;;;24.99;42.99;95070.72;6189226;28;110373;-61
2023/06/29 12:57:28;;;;;;;3.70;3.40;;;;;;;24.97;43.17;95073.72;6188740;28;109070;-67
2023/06/29 13:00:31;;;;;;;3.67;3.37;;;;;;;24.97;43.26;95071.03;6179080;28;110115;-60
2023/06/29 13:03:34;;;;;;;3.97;3.67;;;;;;;24.97;42.87;95072.94;6187351;28;110070;-60
2023/06/29 13:06:39;;;;;;;3.53;3.23;;;;;;;24.96;42.93;95064.13;6188353;28;109275;-60
2023/06/29 13:09:43;;;;;;;3.70;3.40;;;;;;;24.97;42.71;95070.25;6180237;28;110073;-62
2023/06/29 13:12:48;;;;;;;3.70;3.40;;;;;;;24.95;42.79;95065.22;6187685;28;109750;-61
2023/06/29 13:15:51;;;;;;;3.20;3.00;;;;;;;24.95;42.92;95053.72;6188286;28;109973;-64
2023/06/29 13:18:54;;;;;;;3.30;3.10;;;;;;;24.94;42.75;95063.66;6188269;28;109118;-60
2023/06/29 13:21:58;;;;;;;3.80;3.50;;;;;;;24.94;42.73;95058.31;6177673;28;109738;-74
2023/06/29 13:25:01;;;;;;;3.73;3.43;;;;;;;24.94;42.38;95063.66;6188330;28;109217;-61
2023/06/29 13:28:06;;;;;;;3.90;3.60;;;;;;;24.93;42.32;95055.94;6188642;28;109465;-60
2023/06/29 13:31:09;;;;;;;3.53;3.23;;;;;;;24.91;42.45;95058.97;6187973;28;110938;-60
2023/06/29 13:34:12;;;;;;;4.27;3.87;;;;;;;24.92;42.42;95059.75;6176344;28;109467;-61
2023/06/29 13:37:16;;;;;;;3.63;3.33;;;;;;;24.92;42.42;95055.16;6187789;28;109081;-60
2023/06/29 13:40:19;;;;;;;3.60;3.30;;;;;;;24.91;42.66;95050.94;6187741;28;109613;-60
2023/06/29 13:43:23;;;;;;;3.13;2.90;;;;;;;24.91;42.29;95052.81;6182521;28;110281;-60
2023/06/29 13:46:26;;;;;;;3.10;2.80;;;;;;;24.90;42.32;95053.94;6182243;28;110094;-60
2023/06/29 13:49:29;;;;;;;3.03;2.83;;;;;;;24.89;42.57;95047.78;6187574;28;109175;-61
2023/06/29 13:52:32;;;;;;;3.27;3.07;;;;;;;24.88;42.44;95051.56;6187388;28;109092;-60
2023/06/29 13:55:36;;;;;;;3.20;2.90;;;;;;;24.89;42.13;95058.50;6177710;28;109658;-60
2023/06/29 13:58:40;;;;;;;3.60;3.30;;;;;;;24.88;42.05;95050.78;6187522;28;109113;-60
2023/06/29 14:01:43;;;;;;;3.50;3.20;;;;;;;24.90;42.04;95056.59;6187556;28;109072;-60
2023/06/29 14:04:47;;;;;;;3.27;3.07;;;;;;;24.89;41.24;95044.31;6211564;28;110092;-61
2023/06/29 14:07:50;;;;;;;3.67;3.00;;;;;;;24.88;41.76;95053.47;6201395;28;109102;-62
2023/06/29 14:10:53;;;;;;;3.50;3.20;;;;;;;24.88;42.09;95048.13;6211787;28;109999;-62
2023/06/29 14:13:57;;;;;;;3.47;3.17;;;;;;;24.87;41.43;95052.69;6198579;28;110249;-62
2023/06/29 14:17:01;;;;;;;3.50;3.10;;;;;;;24.86;41.47;95048.41;6187065;28;109071;-62